Time;durP1;ratioP1;P1;durP2;ratioP2;P2;SDS_P1;SDS_P2;PMS_P1;PMS_P2;Temp;Humidity;BMP_temperature;BMP_pressure;BME280_temperature;BME280_humidity;BME280_pressure;Samples;Min_cycle;Max_cycle;Signal;HPM_P1;HPM_P2
2022/09/24 00:01:17;;;;;;;1.50;1.17;;;22.50;51.70;;;;;;5083056;28;20455;-84
2022/09/24 00:04:06;;;;;;;3.00;1.47;;;22.50;51.70;;;;;;5088741;28;20511;-84
2022/09/24 00:07:15;;;;;;;1.40;1.23;;;22.50;51.60;;;;;;5078476;28;20452;-84
2022/09/24 00:09:45;;;;;;;1.87;1.37;;;22.50;51.70;;;;;;5038564;28;20423;-83
2022/09/24 00:12:22;;;;;;;2.03;1.40;;;22.50;51.70;;;;;;5037985;28;20426;-84
2022/09/24 00:15:15;;;;;;;;;;;;;;;;;;;;;
2022/09/24 00:17:49;;;;;;;2.50;1.43;;;22.50;51.70;;;;;;5050448;28;20502;-83
2022/09/24 00:20:32;;;;;;;1.70;1.37;;;22.50;51.70;;;;;;5029510;28;20433;-82
2022/09/24 00:23:03;;;;;;;1.90;1.30;;;22.50;51.70;;;;;;5033376;28;20422;-83
2022/09/24 00:28:43;;;;;;;2.13;1.50;;;22.40;52.10;;;;;;5042904;28;20459;-84
2022/09/24 00:31:24;;;;;;;1.30;1.20;;;22.40;51.60;;;;;;5039418;28;20484;-84
2022/09/24 00:34:12;;;;;;;1.57;1.13;;;22.40;51.60;;;;;;5041704;28;20567;-84
2022/09/24 00:37:02;;;;;;;2.17;1.83;;;22.50;51.70;;;;;;5043997;28;20421;-84
2022/09/24 00:39:41;;;;;;;1.63;1.33;;;22.50;51.70;;;;;;5059518;28;20427;-83
2022/09/24 00:42:31;;;;;;;2.03;1.53;;;22.40;51.60;;;;;;5090946;28;20518;-84
2022/09/24 00:45:15;;;;;;;2.40;1.60;;;22.40;51.60;;;;;;5084598;28;20512;-86
2022/09/24 00:48:10;;;;;;;;;;;;;;;;;;;;;
2022/09/24 00:50:50;;;;;;;2.30;1.50;;;22.40;51.60;;;;;;5094353;28;20813;-84
2022/09/24 00:53:37;;;;;;;2.63;1.40;;;22.40;51.60;;;;;;5086586;28;20433;-84
2022/09/24 00:56:10;;;;;;;2.53;1.70;;;22.40;51.60;;;;;;5082227;28;20515;-84
2022/09/24 00:58:55;;;;;;;1.70;1.47;;;22.40;51.70;;;;;;5099165;28;20427;-84
2022/09/24 01:01:41;;;;;;;1.20;1.10;;;22.50;51.70;;;;;;5110021;28;20399;-84
2022/09/24 01:04:24;;;;;;;2.47;1.70;;;22.50;51.70;;;;;;5094012;28;20424;-84
2022/09/24 01:07:15;;;;;;;1.93;1.50;;;22.40;51.60;;;;;;5090635;28;20430;-84
2022/09/24 01:09:59;;;;;;;1.50;1.03;;;22.40;51.70;;;;;;5089245;28;20420;-84
2022/09/24 01:12:36;;;;;;;1.43;1.10;;;22.40;51.60;;;;;;5100690;28;20416;-84
2022/09/24 01:15:21;;;;;;;1.60;1.23;;;22.40;51.70;;;;;;5086308;28;20442;-85
2022/09/24 01:18:36;;;;;;;2.50;1.40;;;22.40;51.60;;;;;;5087157;28;20897;-85
2022/09/24 01:21:25;;;;;;;2.00;1.43;;;22.40;51.60;;;;;;5089355;28;20404;-85
2022/09/24 01:24:27;;;;;;;1.60;1.10;;;22.40;51.60;;;;;;5088495;28;20420;-85
2022/09/24 01:27:40;;;;;;;1.80;1.43;;;22.40;51.70;;;;;;5088658;28;20427;-85
2022/09/24 01:30:15;;;;;;;1.30;1.20;;;22.40;51.70;;;;;;5088913;28;20407;-85
2022/09/24 01:33:00;;;;;;;1.83;1.53;;;22.40;51.70;;;;;;5088941;28;20694;-85
2022/09/24 01:35:45;;;;;;;3.27;1.17;;;22.40;51.70;;;;;;5089482;28;20710;-85
2022/09/24 01:38:40;;;;;;;4.27;2.10;;;22.40;51.70;;;;;;5088697;28;20411;-85
2022/09/24 01:41:28;;;;;;;1.77;1.63;;;22.40;51.70;;;;;;5090756;28;20423;-84
2022/09/24 01:44:14;;;;;;;1.90;1.20;;;22.40;51.70;;;;;;5091731;28;20460;-84
2022/09/24 01:47:01;;;;;;;1.63;1.30;;;22.40;51.70;;;;;;5091806;28;20411;-84
2022/09/24 01:49:54;;;;;;;1.53;1.30;;;22.40;51.70;;;;;;5089786;28;20479;-84
2022/09/24 01:52:42;;;;;;;2.03;1.60;;;22.40;51.60;;;;;;5089131;28;20415;-84
2022/09/24 01:55:29;;;;;;;1.77;1.40;;;22.40;51.70;;;;;;5088644;28;20419;-84
2022/09/24 01:58:13;;;;;;;2.70;1.43;;;22.40;51.70;;;;;;5089395;28;20418;-84
2022/09/24 02:04:11;;;;;;;1.87;1.30;;;22.40;51.70;;;;;;5096059;28;20415;-84
2022/09/24 02:07:12;;;;;;;1.30;1.20;;;22.40;51.70;;;;;;5088347;28;20559;-85
2022/09/24 02:09:55;;;;;;;1.90;1.40;;;22.40;51.70;;;;;;5089184;28;20430;-85
2022/09/24 02:12:41;;;;;;;1.70;1.50;;;22.40;51.70;;;;;;5088606;28;20431;-84
2022/09/24 02:15:29;;;;;;;2.13;1.53;;;22.40;51.70;;;;;;5089323;28;20438;-83
2022/09/24 02:18:08;;;;;;;1.60;1.20;;;22.40;51.70;;;;;;5106858;28;20395;-85
2022/09/24 02:20:48;;;;;;;1.93;1.50;;;22.40;51.70;;;;;;5088637;28;20408;-85
2022/09/24 02:23:37;;;;;;;1.80;1.30;;;22.40;51.70;;;;;;5110414;28;20433;-84
2022/09/24 02:26:17;;;;;;;1.70;1.33;;;22.40;51.80;;;;;;5093935;28;20550;-84
2022/09/24 02:28:55;;;;;;;1.70;1.30;;;22.30;51.70;;;;;;5093089;28;20414;-84
2022/09/24 02:31:57;;;;;;;1.70;1.40;;;22.30;51.70;;;;;;5094181;28;20412;-83
2022/09/24 02:34:52;;;;;;;2.40;1.63;;;22.30;51.80;;;;;;5093908;28;20439;-84
2022/09/24 02:37:27;;;;;;;1.70;1.33;;;22.30;51.80;;;;;;5094511;28;20415;-85
2022/09/24 02:40:18;;;;;;;1.80;1.60;;;22.30;51.80;;;;;;5112757;28;20415;-85
2022/09/24 02:43:03;;;;;;;1.50;1.27;;;22.30;51.90;;;;;;5079014;28;20416;-85
2022/09/24 02:45:37;;;;;;;1.50;1.17;;;22.20;51.80;;;;;;5092452;28;20458;-85
2022/09/24 02:48:12;;;;;;;2.00;1.50;;;22.20;51.80;;;;;;5092444;28;20411;-84
2022/09/24 02:51:09;;;;;;;2.33;1.50;;;22.20;51.80;;;;;;5070696;28;20935;-85
2022/09/24 02:53:56;;;;;;;1.50;1.40;;;22.20;51.80;;;;;;5090835;28;20422;-85
2022/09/24 02:56:40;;;;;;;1.83;1.30;;;22.20;51.90;;;;;;5091001;28;20557;-84
2022/09/24 02:59:42;;;;;;;1.47;1.37;;;22.20;51.90;;;;;;5091179;28;20420;-85
2022/09/24 03:02:25;;;;;;;1.40;1.27;;;22.20;51.90;;;;;;5091785;28;20419;-84
2022/09/24 03:05:06;;;;;;;2.33;1.73;;;22.10;51.90;;;;;;5090730;28;20458;-84
2022/09/24 03:07:51;;;;;;;1.93;1.23;;;22.10;51.90;;;;;;5092544;28;20756;-84
2022/09/24 03:10:34;;;;;;;1.70;1.20;;;22.20;51.90;;;;;;5092496;28;20857;-84
2022/09/24 03:13:20;;;;;;;;;;;;;;;;;;;;;
2022/09/24 03:19:27;;;;;;;1.53;1.43;;;22.20;51.80;;;;;;5110124;28;20368;-84
2022/09/24 03:22:02;;;;;;;1.50;1.40;;;22.10;51.80;;;;;;5092116;28;20419;-84
2022/09/24 03:25:04;;;;;;;1.87;1.50;;;22.10;51.80;;;;;;5109844;28;20441;-83
2022/09/24 03:27:55;;;;;;;2.00;1.27;;;22.20;51.80;;;;;;5091971;28;20415;-83
2022/09/24 03:33:25;;;;;;;2.77;1.70;;;22.10;51.80;;;;;;5026851;28;20434;-83
2022/09/24 03:36:08;;;;;;;2.23;2.00;;;22.10;51.80;;;;;;5010337;28;20453;-84
2022/09/24 03:38:57;;;;;;;1.87;1.60;;;22.10;51.70;;;;;;5009536;28;20443;-84
2022/09/24 03:48:12;;;;;;;2.10;1.30;;;22.20;51.80;;;;;;5028504;28;20458;-83
2022/09/24 03:50:57;;;;;;;1.70;1.60;;;22.10;51.80;;;;;;5012231;28;20454;-83
2022/09/24 03:53:54;;;;;;;1.63;1.40;;;22.10;51.80;;;;;;5029309;28;20458;-83
2022/09/24 03:56:40;;;;;;;1.80;1.43;;;22.10;51.80;;;;;;5012921;28;20424;-83
2022/09/24 04:00:00;;;;;;;;;;;;;;;;;;;;;
2022/09/24 04:02:35;;;;;;;2.10;1.83;;;22.10;51.80;;;;;;5020766;28;20480;-83
2022/09/24 04:05:27;;;;;;;1.43;1.20;;;22.10;51.80;;;;;;5011421;28;20541;-83
2022/09/24 04:08:14;;;;;;;1.90;1.40;;;22.10;51.80;;;;;;5011961;28;20735;-83
2022/09/24 04:11:00;;;;;;;1.40;1.20;;;22.10;51.80;;;;;;5011687;28;20407;-83
2022/09/24 04:13:46;;;;;;;1.80;1.50;;;22.10;51.80;;;;;;5013288;28;20471;-83
2022/09/24 04:16:28;;;;;;;2.00;1.50;;;22.10;51.80;;;;;;5028336;28;20435;-83
2022/09/24 04:19:14;;;;;;;2.17;1.27;;;22.10;51.80;;;;;;5011604;28;20423;-83
2022/09/24 04:22:08;;;;;;;2.07;1.37;;;22.10;51.80;;;;;;5027902;28;20418;-83
2022/09/24 04:24:50;;;;;;;1.63;1.53;;;22.10;51.80;;;;;;5007006;28;20466;-83
2022/09/24 04:31:57;;;;;;;2.40;1.60;;;22.10;51.80;;;;;;5110244;28;20426;-83
2022/09/24 04:34:35;;;;;;;1.60;1.50;;;22.10;51.80;;;;;;5084072;28;20420;-83
2022/09/24 04:37:08;;;;;;;1.60;1.30;;;22.10;51.80;;;;;;5090470;28;20407;-83
2022/09/24 04:39:43;;;;;;;2.17;1.57;;;22.10;51.80;;;;;;5092535;28;20415;-83
2022/09/24 04:42:25;;;;;;;1.83;1.53;;;22.10;51.80;;;;;;5092165;28;20443;-83
2022/09/24 04:45:05;;;;;;;1.90;1.40;;;22.20;51.80;;;;;;5091690;28;20455;-83
2022/09/24 04:47:40;;;;;;;1.77;1.57;;;22.20;51.80;;;;;;5076368;28;20416;-84
2022/09/24 04:50:16;;;;;;;2.20;1.53;;;22.10;51.70;;;;;;5092737;28;20483;-83
2022/09/24 04:52:58;;;;;;;;;;;;;;;;;;;;;
2022/09/24 04:55:45;;;;;;;;;;;;;;;;;;;;;
2022/09/24 04:58:20;;;;;;;1.73;1.60;;;22.20;51.70;;;;;;5102050;28;20460;-83
2022/09/24 05:00:58;;;;;;;2.10;1.73;;;22.10;51.60;;;;;;5093404;28;20451;-82
2022/09/24 05:03:43;;;;;;;1.57;1.27;;;22.20;51.70;;;;;;5093645;28;20419;-83
2022/09/24 05:06:21;;;;;;;2.07;1.70;;;22.20;51.70;;;;;;5092618;28;20458;-83
2022/09/24 05:09:04;;;;;;;;;;;;;;;;;;;;;
2022/09/24 05:11:40;;;;;;;2.27;1.90;;;22.20;51.60;;;;;;5106974;28;20431;-83
2022/09/24 05:14:13;;;;;;;1.90;1.60;;;22.10;51.60;;;;;;5092975;28;20442;-83
2022/09/24 05:16:47;;;;;;;1.90;1.60;;;22.20;51.60;;;;;;5093686;28;20411;-82
2022/09/24 05:19:33;;;;;;;1.80;1.70;;;22.20;51.60;;;;;;5093343;28;20440;-83
2022/09/24 05:22:10;;;;;;;1.80;1.60;;;22.20;51.60;;;;;;5093102;28;20416;-82
2022/09/24 05:24:47;;;;;;;2.13;1.83;;;22.20;51.50;;;;;;5091567;28;20426;-82
2022/09/24 05:27:22;;;;;;;2.10;1.67;;;22.20;51.50;;;;;;5092614;28;20415;-83
2022/09/24 05:29:59;;;;;;;2.00;1.80;;;22.20;51.50;;;;;;5092300;28;20437;-83
2022/09/24 05:32:36;;;;;;;1.73;1.60;;;22.20;51.50;;;;;;5109527;28;20396;-83
2022/09/24 05:35:16;;;;;;;2.10;1.80;;;22.20;51.50;;;;;;5090576;28;20412;-84
2022/09/24 05:37:54;;;;;;;1.90;1.80;;;22.20;51.40;;;;;;5091024;28;20422;-83
2022/09/24 05:43:09;;;;;;;2.83;2.50;;;22.10;51.40;;;;;;5108942;28;20422;-84
2022/09/24 05:45:37;;;;;;;2.30;1.87;;;22.10;51.40;;;;;;5090438;28;20459;-83
2022/09/24 05:48:06;;;;;;;2.00;1.80;;;22.20;51.50;;;;;;5073523;28;20453;-84
2022/09/24 05:50:41;;;;;;;2.20;1.67;;;22.20;51.50;;;;;;5090082;28;20420;-84
2022/09/24 05:53:08;;;;;;;2.13;1.60;;;22.20;51.50;;;;;;5090981;28;20415;-84
2022/09/24 05:55:40;;;;;;;1.50;1.40;;;22.20;51.50;;;;;;5091031;28;20880;-84
2022/09/24 05:58:12;;;;;;;1.97;1.77;;;22.10;51.40;;;;;;5091175;28;20427;-83
2022/09/24 06:00:46;;;;;;;2.40;2.20;;;22.10;51.40;;;;;;5091293;28;20415;-83
2022/09/24 06:03:16;;;;;;;3.50;2.00;;;22.20;51.40;;;;;;5090696;28;20424;-83
2022/09/24 06:05:52;;;;;;;2.27;2.07;;;22.10;51.40;;;;;;5090582;28;20488;-83
2022/09/24 06:08:23;;;;;;;2.00;1.90;;;22.10;51.40;;;;;;5090294;28;20420;-82
2022/09/24 06:10:51;;;;;;;2.07;1.77;;;22.20;51.50;;;;;;5075094;28;20411;-83
2022/09/24 06:13:27;;;;;;;2.13;1.93;;;22.10;51.40;;;;;;5091004;28;20437;-83
2022/09/24 06:16:07;;;;;;;2.10;1.80;;;22.10;51.40;;;;;;5108299;28;20447;-83
2022/09/24 06:18:46;;;;;;;2.63;2.10;;;22.10;51.40;;;;;;5089151;28;20466;-83
2022/09/24 06:21:21;;;;;;;2.10;1.93;;;22.10;51.40;;;;;;5088739;28;20434;-83
2022/09/24 06:23:56;;;;;;;2.53;1.90;;;22.10;51.40;;;;;;5089464;28;20442;-83
2022/09/24 06:26:36;;;;;;;4.30;1.73;;;22.10;51.40;;;;;;5107259;28;20455;-83
2022/09/24 06:29:08;;;;;;;2.20;1.83;;;22.10;51.40;;;;;;5066536;28;20415;-83
2022/09/24 06:31:46;;;;;;;2.53;1.90;;;22.10;51.40;;;;;;5089930;28;20442;-84
2022/09/24 06:34:20;;;;;;;2.57;2.37;;;22.10;51.40;;;;;;5090050;28;20407;-83
2022/09/24 06:37:02;;;;;;;2.43;2.03;;;22.10;51.40;;;;;;5107766;28;20398;-83
2022/09/24 06:39:39;;;;;;;2.20;1.93;;;22.10;51.40;;;;;;5089060;28;20414;-83
2022/09/24 06:42:40;;;;;;;1.80;1.70;;;22.10;51.50;;;;;;5089667;28;20420;-83
2022/09/24 06:51:26;;;;;;;2.47;2.27;;;22.20;51.60;;;;;;5088368;28;20872;-83
2022/09/24 06:54:08;;;;;;;2.00;1.70;;;22.10;51.60;;;;;;5089664;28;20456;-83
2022/09/24 06:56:53;;;;;;;;;;;;;;;;;;;;;
2022/09/24 06:59:30;;;;;;;2.60;1.83;;;22.10;51.50;;;;;;5108219;28;20844;-83
2022/09/24 07:02:29;;;;;;;1.90;1.77;;;22.20;51.50;;;;;;5089662;28;20443;-83
2022/09/24 07:08:21;;;;;;;2.23;1.77;;;22.20;51.60;;;;;;5108236;28;20410;-83
2022/09/24 07:11:03;;;;;;;2.20;2.00;;;22.20;51.60;;;;;;5094297;28;20424;-83
2022/09/24 07:13:48;;;;;;;2.77;1.90;;;22.20;51.60;;;;;;5093211;28;20418;-84
2022/09/24 07:16:32;;;;;;;3.73;1.93;;;22.20;51.60;;;;;;5074749;28;20459;-83
2022/09/24 07:19:03;;;;;;;2.13;1.93;;;22.20;51.60;;;;;;5091781;28;20879;-83
2022/09/24 07:21:31;;;;;;;3.53;2.00;;;22.20;51.50;;;;;;5092405;28;20472;-83
2022/09/24 07:24:04;;;;;;;2.97;2.20;;;22.20;51.50;;;;;;5093420;28;20416;-83
2022/09/24 07:26:48;;;;;;;2.20;1.73;;;22.20;51.50;;;;;;5093948;28;20467;-84
2022/09/24 07:29:19;;;;;;;3.17;2.30;;;22.20;51.60;;;;;;5093405;28;20416;-84
2022/09/24 07:32:05;;;;;;;2.30;2.00;;;22.20;51.50;;;;;;5089378;28;20454;-83
2022/09/24 07:34:47;;;;;;;2.30;2.00;;;22.20;51.50;;;;;;5059662;28;20448;-83
2022/09/24 07:37:39;;;;;;;2.83;2.37;;;22.20;51.50;;;;;;5073686;28;20792;-83
2022/09/24 07:40:56;;;;;;;2.87;2.13;;;22.20;51.40;;;;;;5073661;28;20409;-83
2022/09/24 07:43:32;;;;;;;2.73;2.20;;;22.20;51.40;;;;;;5073815;28;20428;-83
2022/09/24 07:46:08;;;;;;;2.80;2.60;;;22.20;51.50;;;;;;5074940;28;20489;-83
2022/09/24 07:48:44;;;;;;;3.00;2.07;;;22.20;51.50;;;;;;5073520;28;20458;-83
2022/09/24 07:51:20;;;;;;;2.30;2.10;;;22.20;51.50;;;;;;5074548;28;20413;-83
2022/09/24 07:53:58;;;;;;;2.30;1.80;;;22.20;51.50;;;;;;5073530;28;20424;-83
2022/09/24 08:03:11;;;;;;;3.33;2.40;;;22.20;51.50;;;;;;5092466;28;20368;-82
2022/09/24 08:06:00;;;;;;;2.00;1.80;;;22.20;51.60;;;;;;5058361;28;20490;-82
2022/09/24 08:08:48;;;;;;;4.33;2.30;;;22.20;51.60;;;;;;5076250;28;20405;-83
2022/09/24 08:11:28;;;;;;;2.23;1.90;;;22.20;52.20;;;;;;5074856;28;20412;-83
2022/09/24 08:14:05;;;;;;;2.50;2.20;;;22.20;51.60;;;;;;5075077;28;20429;-82
2022/09/24 08:16:39;;;;;;;2.20;2.00;;;22.20;51.60;;;;;;5074624;28;20430;-84
2022/09/24 08:19:16;;;;;;;2.03;1.83;;;22.20;51.60;;;;;;5074733;28;20428;-83
2022/09/24 08:21:57;;;;;;;3.00;2.30;;;22.20;51.60;;;;;;5074539;28;20439;-82
2022/09/24 08:24:33;;;;;;;3.30;2.00;;;22.20;51.60;;;;;;5077777;28;20427;-82
2022/09/24 08:27:06;;;;;;;2.77;2.53;;;22.20;51.60;;;;;;5106649;28;20423;-82
2022/09/24 08:29:41;;;;;;;2.97;2.30;;;22.20;51.60;;;;;;5092978;28;20483;-83
2022/09/24 08:32:22;;;;;;;4.20;3.47;;;22.20;51.50;;;;;;5092496;28;20437;-87
2022/09/24 08:35:23;;;;;;;3.70;2.90;;;22.20;51.50;;;;;;5092502;28;20407;-84
2022/09/24 08:41:55;;;;;;;4.23;3.00;;;22.10;51.20;;;;;;5110287;28;20426;-84
2022/09/24 08:47:51;;;;;;;4.83;3.00;;;22.10;51.30;;;;;;5029155;28;20705;-84
2022/09/24 08:50:30;;;;;;;3.20;2.90;;;22.10;51.30;;;;;;5031345;28;20433;-83
2022/09/24 08:53:34;;;;;;;3.60;2.90;;;22.10;51.30;;;;;;5030821;28;20418;-84
2022/09/24 08:56:10;;;;;;;3.10;2.80;;;22.10;51.30;;;;;;5031592;28;20429;-84
2022/09/24 08:58:39;;;;;;;4.53;2.90;;;22.10;51.30;;;;;;5027948;28;20414;-85
2022/09/24 09:01:41;;;;;;;5.23;2.90;;;22.20;51.40;;;;;;5027965;28;20422;-85
2022/09/24 09:04:51;;;;;;;3.17;2.70;;;22.20;51.30;;;;;;5027388;28;20919;-85
2022/09/24 09:07:38;;;;;;;2.90;2.67;;;22.20;51.30;;;;;;5033837;28;20442;-84
2022/09/24 09:10:44;;;;;;;3.23;2.90;;;22.10;51.20;;;;;;5028415;28;20442;-85
2022/09/24 09:13:53;;;;;;;3.77;3.30;;;22.10;51.20;;;;;;5026456;28;20441;-85
2022/09/24 09:16:46;;;;;;;3.10;2.60;;;22.20;51.20;;;;;;5018312;28;20410;-85
2022/09/24 09:19:25;;;;;;;2.57;2.37;;;22.10;51.20;;;;;;5031968;28;20455;-85
2022/09/24 09:25:35;;;;;;;4.53;2.73;;;22.10;51.20;;;;;;5085270;28;20450;-85
2022/09/24 09:28:18;;;;;;;4.30;2.60;;;22.10;51.20;;;;;;5068911;28;20421;-86
2022/09/24 09:34:50;;;;;;;4.33;2.77;;;22.10;51.20;;;;;;5093548;28;20408;-84
2022/09/24 09:38:22;;;;;;;4.50;3.07;;;22.10;51.20;;;;;;4974136;28;20408;-85
2022/09/24 09:41:28;;;;;;;3.20;2.47;;;22.20;51.30;;;;;;4948151;29;20421;-84
2022/09/24 09:50:54;;;;;;;3.07;2.70;;;22.20;51.30;;;;;;5023353;28;20479;-85
2022/09/24 09:53:38;;;;;;;3.90;3.00;;;22.10;51.20;;;;;;5005268;28;20415;-85
2022/09/24 09:56:22;;;;;;;3.27;2.70;;;22.20;51.30;;;;;;5005699;28;20431;-85
2022/09/24 09:59:32;;;;;;;;;;;;;;;;;;;;;
2022/09/24 10:06:02;;;;;;;3.57;2.77;;;22.10;51.10;;;;;;4966941;29;20934;-84
2022/09/24 10:11:28;;;;;;;4.00;3.43;;;22.20;51.20;;;;;;4965524;29;20410;-84
2022/09/24 10:14:15;;;;;;;5.60;3.17;;;22.10;51.10;;;;;;4977269;28;20627;-84
2022/09/24 10:17:04;;;;;;;3.17;2.70;;;22.20;51.20;;;;;;4968927;28;20480;-83
2022/09/24 10:19:57;;;;;;;5.00;2.80;;;22.10;51.10;;;;;;4974063;28;20421;-84
2022/09/24 10:25:43;;;;;;;3.57;3.17;;;22.20;51.20;;;;;;4986370;28;20512;-83
2022/09/24 10:32:28;;;;;;;4.40;2.93;;;22.20;51.20;;;;;;4948233;29;20928;-84
2022/09/24 10:35:56;;;;;;;;;;;;;;;;;;;;;
2022/09/24 10:38:37;;;;;;;4.97;2.90;;;22.20;51.20;;;;;;4940423;29;20521;-84
2022/09/24 10:41:32;;;;;;;4.23;2.93;;;22.20;51.30;;;;;;4967647;29;20422;-83
2022/09/24 10:44:28;;;;;;;4.30;2.60;;;22.20;51.30;;;;;;4948835;29;20428;-83
2022/09/24 10:47:44;;;;;;;4.80;3.17;;;22.20;51.30;;;;;;4969529;29;20472;-84
2022/09/24 10:50:46;;;;;;;3.00;2.70;;;22.20;51.20;;;;;;5048734;28;20856;-84
2022/09/24 10:53:43;;;;;;;3.37;2.70;;;22.20;51.30;;;;;;5032515;28;20428;-84
2022/09/24 11:00:26;;;;;;;3.30;2.83;;;22.20;51.30;;;;;;5071768;28;20431;-85
2022/09/24 11:03:45;;;;;;;3.10;2.60;;;22.20;51.30;;;;;;4989906;28;20423;-85
2022/09/24 11:06:45;;;;;;;3.07;2.77;;;22.20;51.30;;;;;;5005524;28;20502;-85
2022/09/24 11:09:51;;;;;;;3.00;2.43;;;22.20;51.30;;;;;;5025559;28;20483;-85
2022/09/24 11:12:44;;;;;;;5.63;2.70;;;22.20;51.30;;;;;;5028278;28;20463;-84
2022/09/24 11:15:42;;;;;;;4.07;2.73;;;22.20;51.30;;;;;;5028683;28;20441;-84
2022/09/24 11:18:44;;;;;;;3.60;3.30;;;22.20;51.30;;;;;;5028194;28;20412;-85
2022/09/24 11:22:03;;;;;;;4.30;3.13;;;22.20;51.30;;;;;;5029540;28;20438;-84
2022/09/24 11:25:01;;;;;;;3.13;2.83;;;22.30;51.40;;;;;;4946132;29;20731;-84
2022/09/24 11:28:17;;;;;;;3.10;2.80;;;22.20;51.30;;;;;;4949790;29;20438;-84
2022/09/24 11:31:30;;;;;;;;;;;;;;;;;;;;;
2022/09/24 11:34:18;;;;;;;3.53;3.10;;;22.20;51.30;;;;;;4982935;28;20702;-85
2022/09/24 11:37:51;;;;;;;;;;;;;;;;;;;;;
2022/09/24 11:41:28;;;;;;;3.27;2.97;;;22.20;51.30;;;;;;4948413;29;20980;-85
2022/09/24 11:44:12;;;;;;;3.03;2.73;;;22.20;51.30;;;;;;4948349;29;20419;-85
2022/09/24 11:47:28;;;;;;;3.20;2.67;;;22.20;51.30;;;;;;4948279;29;21075;-85
2022/09/24 11:50:25;;;;;;;2.97;2.67;;;22.20;51.30;;;;;;4929110;29;20431;-86
2022/09/24 11:53:33;;;;;;;3.10;2.80;;;22.20;51.30;;;;;;4932009;29;20531;-85
2022/09/24 11:56:20;;;;;;;2.60;2.40;;;22.20;51.30;;;;;;4947695;29;20431;-85
2022/09/24 11:58:59;;;;;;;2.87;2.20;;;22.20;51.30;;;;;;4951626;28;20446;-85
2022/09/24 12:08:21;;;;;;;2.80;2.50;;;22.20;51.20;;;;;;5002463;28;20407;-85
2022/09/24 12:11:42;;;;;;;3.80;2.83;;;22.20;51.20;;;;;;4988533;28;20420;-85
2022/09/24 12:14:40;;;;;;;;;;;;;;;;;;;;;
2022/09/24 12:17:26;;;;;;;3.17;2.60;;;22.20;51.30;;;;;;5061781;28;20495;-85
2022/09/24 12:20:18;;;;;;;3.20;2.90;;;22.20;51.30;;;;;;5088639;28;20407;-85
2022/09/24 12:23:16;;;;;;;2.70;2.43;;;22.20;51.30;;;;;;5089334;28;20412;-85
2022/09/24 12:26:30;;;;;;;2.70;2.50;;;22.20;51.30;;;;;;5089632;28;20455;-85
2022/09/24 12:33:09;;;;;;;2.80;2.60;;;22.20;51.20;;;;;;5109601;28;20426;-85
2022/09/24 12:43:04;;;;;;;2.90;2.40;;;22.20;51.30;;;;;;5102499;28;20415;-84
2022/09/24 12:46:00;;;;;;;2.50;2.30;;;22.20;51.30;;;;;;5075764;28;20463;-85
2022/09/24 12:48:43;;;;;;;2.63;2.43;;;22.20;51.30;;;;;;5067801;28;20438;-85
2022/09/24 12:51:31;;;;;;;;;;;;;;;;;;;;;
2022/09/24 12:58:11;;;;;;;2.10;1.90;;;22.20;51.20;;;;;;5002018;28;20416;-85
2022/09/24 13:01:01;;;;;;;3.83;2.70;;;22.20;51.20;;;;;;4990742;28;20424;-85
2022/09/24 13:03:59;;;;;;;2.77;2.30;;;22.20;51.30;;;;;;4987635;28;20424;-85
2022/09/24 13:06:47;;;;;;;3.10;2.53;;;22.20;51.30;;;;;;4982995;28;20464;-85
2022/09/24 13:23:45;;;;;;;3.40;2.50;;;22.20;51.30;;;;;;4956131;28;20477;-85
2022/09/24 13:26:44;;;;;;;2.40;2.20;;;22.20;51.30;;;;;;5006390;28;20466;-86
2022/09/24 13:29:30;;;;;;;4.60;2.47;;;22.20;51.30;;;;;;5091452;28;20421;-86
2022/09/24 13:32:26;;;;;;;2.67;2.30;;;22.10;51.20;;;;;;5070559;28;20422;-85
2022/09/24 13:35:11;;;;;;;2.27;2.10;;;22.20;51.30;;;;;;5085541;28;20431;-85
2022/09/24 13:38:18;;;;;;;2.80;2.60;;;22.20;51.30;;;;;;5058876;28;20428;-85
2022/09/24 13:41:01;;;;;;;2.57;2.37;;;22.20;51.20;;;;;;5046032;28;20519;-85
2022/09/24 13:50:51;;;;;;;2.57;2.27;;;22.20;51.10;;;;;;5097081;28;20422;-85
2022/09/24 13:54:03;;;;;;;3.43;2.80;;;22.20;51.10;;;;;;5106189;28;20446;-86
2022/09/24 13:57:11;;;;;;;2.73;2.33;;;22.10;51.10;;;;;;5089696;28;20428;-86
2022/09/24 14:00:13;;;;;;;2.47;2.27;;;22.10;51.20;;;;;;5071282;28;20447;-85
2022/09/24 14:06:21;;;;;;;2.40;2.20;;;22.20;51.30;;;;;;5060661;28;20486;-84
2022/09/24 14:15:11;;;;;;;3.23;2.10;;;22.10;51.30;;;;;;5085802;28;20415;-85
2022/09/24 14:18:04;;;;;;;3.00;2.53;;;22.10;51.30;;;;;;5062836;28;20436;-84
2022/09/24 14:20:47;;;;;;;2.77;2.57;;;22.20;51.40;;;;;;5043338;28;20512;-84
2022/09/24 14:27:40;;;;;;;;;;;;;;;;;;;;;
2022/09/24 14:37:03;;;;;;;2.73;2.37;;;22.10;51.30;;;;;;4915382;29;20383;-84
2022/09/24 14:39:56;;;;;;;2.40;2.20;;;22.10;51.30;;;;;;4899246;29;20447;-84
2022/09/24 14:46:12;;;;;;;2.60;2.20;;;22.10;51.30;;;;;;4914621;29;20644;-84
2022/09/24 14:49:30;;;;;;;2.60;2.30;;;22.10;51.30;;;;;;4913164;29;20720;-83
2022/09/24 15:09:59;;;;;;;2.57;2.00;;;22.10;51.40;;;;;;4981672;28;20395;-84
2022/09/24 15:19:53;;;;;;;2.53;2.27;;;22.10;51.40;;;;;;4948795;28;20398;-85
2022/09/24 15:23:03;;;;;;;2.10;1.97;;;22.10;51.40;;;;;;4909523;29;20420;-85
2022/09/24 15:26:05;;;;;;;2.30;2.10;;;22.10;51.50;;;;;;4908931;29;20464;-85
2022/09/24 15:38:55;;;;;;;;;;;;;;;;;;;;;
2022/09/24 15:42:09;;;;;;;2.70;2.50;;;22.00;51.40;;;;;;4946033;29;20518;-84
2022/09/24 15:45:11;;;;;;;2.37;1.80;;;22.00;51.40;;;;;;4947227;29;20805;-85
2022/09/24 15:55:02;;;;;;;;;;;;;;;;;;;;;
2022/09/24 15:57:45;;;;;;;2.53;2.30;;;22.00;51.90;;;;;;5022462;28;20542;-86
2022/09/24 16:00:45;;;;;;;3.10;2.07;;;22.00;51.40;;;;;;5094230;28;20407;-86
2022/09/24 16:03:39;;;;;;;2.47;2.27;;;22.00;51.40;;;;;;5100484;28;20411;-86
2022/09/24 16:06:26;;;;;;;2.03;1.83;;;22.10;51.50;;;;;;5107031;28;20515;-86
2022/09/24 16:09:13;;;;;;;2.80;2.20;;;22.00;51.40;;;;;;5108126;28;20403;-86
2022/09/24 16:21:39;;;;;;;2.50;2.30;;;22.10;51.50;;;;;;5025953;28;20506;-84
2022/09/24 16:41:50;;;;;;;2.60;1.90;;;22.00;51.50;;;;;;4944734;29;20418;-86
2022/09/24 16:48:43;;;;;;;2.67;2.10;;;22.00;51.50;;;;;;4851830;29;20435;-86
2022/09/24 17:25:44;;;;;;;2.40;2.20;;;21.90;51.60;;;;;;4797287;29;20427;-85
2022/09/24 17:36:27;;;;;;;;;;;;;;;;;;;;;
2022/09/24 17:46:13;;;;;;;2.23;1.67;;;21.90;51.60;;;;;;4946686;29;20518;-86
2022/09/24 17:49:09;;;;;;;2.00;1.80;;;21.90;51.60;;;;;;4925225;29;20518;-86
2022/09/24 17:58:53;;;;;;;2.30;2.10;;;21.90;51.60;;;;;;4950222;28;20390;-86
2022/09/24 19:28:35;;;;;;;2.20;1.50;;;21.90;51.90;;;;;;4800128;30;20472;-86
2022/09/24 19:45:00;;;;;;;;;;;;;;;;;;;;;
2022/09/24 20:16:07;;;;;;;5.00;1.93;;;21.80;51.90;;;;;;4835394;29;20911;-86
2022/09/24 20:43:14;;;;;;;;;;;;;;;;;;;;;
2022/09/24 20:53:41;;;;;;;;;;;;;;;;;;;;;
2022/09/24 21:07:18;;;;;;;;;;;;;;;;;;;;;
2022/09/24 21:41:30;;;;;;;;;;;;;;;;;;;;;
2022/09/24 22:05:59;;;;;;;;;;;;;;;;;;;;;
2022/09/24 22:08:56;;;;;;;2.70;1.70;;;22.00;51.90;;;;;;4811753;29;20534;-86
2022/09/24 22:11:45;;;;;;;1.80;1.60;;;21.90;51.80;;;;;;4814849;29;20445;-86
2022/09/24 22:14:53;;;;;;;2.17;1.70;;;21.90;51.80;;;;;;4819376;29;20471;-85
2022/09/24 22:17:25;;;;;;;1.97;1.77;;;21.90;51.80;;;;;;4814251;29;20437;-84
2022/09/24 22:20:13;;;;;;;;;;;;;;;;;;;;;
2022/09/24 22:43:05;;;;;;;1.73;1.60;;;21.90;51.80;;;;;;4832072;29;20429;-86
2022/09/24 23:10:50;;;;;;;;;;;;;;;;;;;;;
2022/09/24 23:13:51;;;;;;;1.67;1.50;;;22.00;51.90;;;;;;4887372;29;20491;-85
2022/09/24 23:20:32;;;;;;;;;;;;;;;;;;;;;
2022/09/24 23:30:25;;;;;;;;;;;;;;;;;;;;;
2022/09/24 23:43:26;;;;;;;1.60;1.50;;;22.10;51.90;;;;;;4908528;29;20683;-85
2022/09/24 23:50:13;;;;;;;2.23;2.00;;;22.00;51.80;;;;;;4910621;29;20493;-85
2022/09/24 23:53:23;;;;;;;1.40;1.23;;;22.00;51.80;;;;;;4944469;29;20418;-85
